Seminole, Alabama
Current Conditions -  °F | °C
As of 2:56 PM on Saturday 25 Oct 2014 (Local Time) from KNPA Reporting Station
Clear Clear  
Wind Chill: 79°   Ceiling: Unl
Heat Index: 79°   Visibility: 10mi
Dew Point: 47°   Wind: 9mph
Humidity: 32%   Direction: 340°NNW
Pressure: 30.03"   Gusts: NA
Location:  30.52°N, 87.47°W
Report Text: KNPA 251956Z 34008KT 10SM CLR 26/08 A3003 RMK AO2 SLP170 T02610083
Loading
Personal Weather Stations






























Interactive Weather Map
Tropical Storm Tracking
New forecast layout! Learn more

10-Day Weather Forecast

Advertisements
Track Severe Weather on mobile